ADDS METAR Data INFO
IDs: Format: Raw Decoded Include TAF

Data at: 0057 UTC 22 Oct 2017

KSMF 220053Z 35003KT 10SM CLR 19/07 A3021 RMK AO2 SLP228 T01940072
KSMF 212353Z 34006KT 10SM CLR 21/06 A3020 RMK AO2 SLP227 T02110061 10211 20139 55009
KSMF 212253Z 34006KT 10SM CLR 21/07 A3020 RMK AO2 SLP226 T02060067
KSMF 212153Z VRB05KT 10SM CLR 20/06 A3021 RMK AO2 SLP230 T02000061
KSMF 212053Z 34006KT 10SM CLR 19/07 A3023 RMK AO2 SLP235 T01890067 58009
KSMF 211953Z VRB05KT 10SM CLR 18/08 A3024 RMK AO2 SLP239 T01830083
KSMF 211853Z 00000KT 10SM CLR 16/09 A3025 RMK AO2 SLP243 T01610089
KSMF 211753Z 00000KT 10SM FEW250 14/09 A3026 RMK AO2 SLP245 T01440089 10144 20044 50012
KSMF 211653Z 06003KT 10SM FEW250 12/09 A3026 RMK AO2 SLP245 T01220094
KSMF 211553Z 31005KT 10SM FEW250 09/08 A3023 RMK AO2 SLP236 T00890078
KSMF 211453Z COR 30006KT 9SM FEW250 07/07 A3022 RMK AO2 SLP233 T00670067 51012
KSMF 211353Z 25003KT 10SM FEW250 06/06 A3021 RMK AO2 SLP230 T00610061
KSMF 211253Z 29003KT 10SM CLR 05/05 A3019 RMK AO2 SLP224 T00500050
KSMF 211223Z COR 35003KT 10SM CLR 06/06 A3019 RMK AO2 T00560056
KSMF 211217Z 00000KT 1 1/2SM CLR 06/06 A3018 RMK AO2 T00610061
KSMF 211153Z 00000KT 10SM CLR 07/06 A3018 RMK AO2 SLP220 T00670061 10106 20056 53012
KSMF 211053Z 35005KT 10SM CLR 06/06 A3017 RMK AO2 SLP216 T00610061
KSMF 210953Z 36004KT 7SM CLR 06/06 A3016 RMK AO2 SLP212 T00560056
KSMF 210853Z 31005KT 10SM CLR 07/06 A3015 RMK AO2 SLP209 T00670061 51005
KSMF 210753Z 30004KT 10SM CLR 08/07 A3015 RMK AO2 SLP208 T00780072 401780067
KSMF 210653Z 03004KT 10SM CLR 07/06 A3015 RMK AO2 SLP209 T00720061
KSMF 210553Z 00000KT 10SM CLR 10/08 A3014 RMK AO2 SLP204 T01000078 10172 20094 51016
KSMF 210453Z 00000KT 10SM CLR 11/07 A3012 RMK AO2 SLP197 T01110072
KSMF 210353Z 32003KT 10SM CLR 11/08 A3011 RMK AO2 SLP195 T01110078
KSMF 210253Z 00000KT 10SM FEW250 14/08 A3009 RMK AO2 SLP188 T01390078 53004
KSMF 210153Z 04004KT 10SM FEW250 12/08 A3008 RMK AO2 SLP184 T01170083
KSMF 210053Z 00000KT 10SM BKN250 16/07 A3007 RMK AO2 SLP181 T01610072
KSMF 202353Z 00000KT 10SM BKN250 17/06 A3007 RMK AO2 SLP183 T01720061 10178 20139 53001
KSMF 202253Z 00000KT 10SM BKN250 17/06 A3007 RMK AO2 SLP182 T01720061
KSMF 202153Z 19005KT 10SM FEW060 BKN250 17/06 A3007 RMK AO2 SLP181 T01670061
KSMF 202053Z 25006KT 10SM FEW060 BKN250 17/07 A3007 RMK AO2 SLP182 T01670067 50000
KSMF 201953Z 22005KT 10SM BKN250 16/07 A3007 RMK AO2 SLP183 T01560072
KSMF 201853Z 19007KT 10SM BKN250 15/09 A3007 RMK AO2 SLP182 T01500094
KSMF 201753Z 17007KT 10SM BKN250 14/09 A3007 RMK AO2 SLP182 T01390094 10139 20089 51017
KSMF 201653Z 17005KT 10SM BKN250 12/11 A3006 RMK AO2 SLP177 T01220106
KSMF 201553Z 18009KT 10SM FEW100 BKN250 12/09 A3005 RMK AO2 SLP174 T01170094
KSMF 201453Z 18006KT 10SM FEW090 FEW250 11/07 A3002 RMK AO2 SLP165 T01060072 51021
KSMF 201353Z 16003KT 10SM FEW090 11/08 A2999 RMK AO2 SLP156 T01060078